sensor_id;sensor_type;location;lat;lon;timestamp;P1;durP1;ratioP1;P2;durP2;ratioP2
2299;SDS011;1158;48.750;9.078;2023-04-06T00:00:08;7.87;;;6.40;;
2299;SDS011;1158;48.750;9.078;2023-04-06T00:02:36;9.77;;;6.00;;
2299;SDS011;1158;48.750;9.078;2023-04-06T00:05:03;10.03;;;6.30;;
2299;SDS011;1158;48.750;9.078;2023-04-06T00:07:30;8.70;;;6.20;;
2299;SDS011;1158;48.750;9.078;2023-04-06T00:09:58;10.57;;;6.43;;
2299;SDS011;1158;48.750;9.078;2023-04-06T00:12:26;10.70;;;7.67;;
2299;SDS011;1158;48.750;9.078;2023-04-06T00:14:53;12.77;;;7.70;;
2299;SDS011;1158;48.750;9.078;2023-04-06T00:17:20;10.87;;;6.73;;
2299;SDS011;1158;48.750;9.078;2023-04-06T00:19:46;12.40;;;7.60;;
2299;SDS011;1158;48.750;9.078;2023-04-06T00:22:13;10.23;;;6.70;;
2299;SDS011;1158;48.750;9.078;2023-04-06T00:24:40;11.97;;;6.63;;
2299;SDS011;1158;48.750;9.078;2023-04-06T00:27:06;9.30;;;5.43;;
2299;SDS011;1158;48.750;9.078;2023-04-06T00:29:34;13.00;;;7.47;;
2299;SDS011;1158;48.750;9.078;2023-04-06T00:32:01;10.73;;;6.90;;
2299;SDS011;1158;48.750;9.078;2023-04-06T00:34:28;9.93;;;6.60;;
2299;SDS011;1158;48.750;9.078;2023-04-06T00:36:55;11.80;;;7.63;;
2299;SDS011;1158;48.750;9.078;2023-04-06T00:39:21;11.03;;;7.37;;
2299;SDS011;1158;48.750;9.078;2023-04-06T00:41:49;12.17;;;7.33;;
2299;SDS011;1158;48.750;9.078;2023-04-06T00:44:17;9.53;;;7.27;;
2299;SDS011;1158;48.750;9.078;2023-04-06T00:46:45;10.90;;;8.37;;
2299;SDS011;1158;48.750;9.078;2023-04-06T00:49:12;9.97;;;7.77;;
2299;SDS011;1158;48.750;9.078;2023-04-06T00:51:39;11.60;;;6.77;;
2299;SDS011;1158;48.750;9.078;2023-04-06T00:54:06;14.13;;;7.47;;
2299;SDS011;1158;48.750;9.078;2023-04-06T00:56:33;11.17;;;7.33;;
2299;SDS011;1158;48.750;9.078;2023-04-06T00:59:00;9.90;;;6.63;;
2299;SDS011;1158;48.750;9.078;2023-04-06T01:01:26;16.70;;;9.00;;
2299;SDS011;1158;48.750;9.078;2023-04-06T01:03:55;13.07;;;7.27;;
2299;SDS011;1158;48.750;9.078;2023-04-06T01:06:21;15.03;;;8.40;;
2299;SDS011;1158;48.750;9.078;2023-04-06T01:08:48;13.37;;;7.90;;
2299;SDS011;1158;48.750;9.078;2023-04-06T01:11:15;11.97;;;8.20;;
2299;SDS011;1158;48.750;9.078;2023-04-06T01:13:43;13.70;;;9.70;;
2299;SDS011;1158;48.750;9.078;2023-04-06T01:16:09;12.03;;;7.43;;
2299;SDS011;1158;48.750;9.078;2023-04-06T01:18:37;13.50;;;8.53;;
2299;SDS011;1158;48.750;9.078;2023-04-06T01:21:05;14.67;;;9.47;;
2299;SDS011;1158;48.750;9.078;2023-04-06T01:23:35;12.93;;;9.50;;
2299;SDS011;1158;48.750;9.078;2023-04-06T01:26:01;14.67;;;9.67;;
2299;SDS011;1158;48.750;9.078;2023-04-06T01:28:28;12.70;;;8.77;;
2299;SDS011;1158;48.750;9.078;2023-04-06T01:30:55;14.00;;;8.73;;
2299;SDS011;1158;48.750;9.078;2023-04-06T01:33:21;13.77;;;9.07;;
2299;SDS011;1158;48.750;9.078;2023-04-06T01:35:48;14.00;;;8.30;;
2299;SDS011;1158;48.750;9.078;2023-04-06T01:38:15;13.33;;;8.60;;
2299;SDS011;1158;48.750;9.078;2023-04-06T01:40:43;14.07;;;8.20;;
2299;SDS011;1158;48.750;9.078;2023-04-06T01:43:10;14.00;;;8.67;;
2299;SDS011;1158;48.750;9.078;2023-04-06T01:45:36;13.57;;;8.83;;
2299;SDS011;1158;48.750;9.078;2023-04-06T01:48:03;13.07;;;7.90;;
2299;SDS011;1158;48.750;9.078;2023-04-06T01:50:30;15.10;;;8.80;;
2299;SDS011;1158;48.750;9.078;2023-04-06T01:52:57;14.47;;;8.27;;
2299;SDS011;1158;48.750;9.078;2023-04-06T01:58:47;14.90;;;9.10;;
2299;SDS011;1158;48.750;9.078;2023-04-06T02:01:13;14.97;;;8.77;;
2299;SDS011;1158;48.750;9.078;2023-04-06T02:03:40;16.80;;;8.70;;
2299;SDS011;1158;48.750;9.078;2023-04-06T02:06:07;15.67;;;9.10;;
2299;SDS011;1158;48.750;9.078;2023-04-06T02:08:33;17.63;;;9.27;;
2299;SDS011;1158;48.750;9.078;2023-04-06T02:11:00;18.00;;;10.90;;
2299;SDS011;1158;48.750;9.078;2023-04-06T02:13:27;13.27;;;9.70;;
2299;SDS011;1158;48.750;9.078;2023-04-06T02:15:55;16.17;;;9.60;;
2299;SDS011;1158;48.750;9.078;2023-04-06T02:18:22;13.67;;;9.50;;
2299;SDS011;1158;48.750;9.078;2023-04-06T02:20:49;13.37;;;8.33;;
2299;SDS011;1158;48.750;9.078;2023-04-06T02:23:16;13.57;;;8.33;;
2299;SDS011;1158;48.750;9.078;2023-04-06T02:25:42;16.97;;;9.40;;
2299;SDS011;1158;48.750;9.078;2023-04-06T02:28:09;14.40;;;8.50;;
2299;SDS011;1158;48.750;9.078;2023-04-06T02:30:36;15.30;;;9.80;;
2299;SDS011;1158;48.750;9.078;2023-04-06T02:33:04;16.37;;;9.83;;
2299;SDS011;1158;48.750;9.078;2023-04-06T02:35:30;22.23;;;9.73;;
2299;SDS011;1158;48.750;9.078;2023-04-06T02:37:57;16.27;;;9.40;;
2299;SDS011;1158;48.750;9.078;2023-04-06T02:40:24;19.33;;;10.10;;
2299;SDS011;1158;48.750;9.078;2023-04-06T02:42:51;15.90;;;9.70;;
2299;SDS011;1158;48.750;9.078;2023-04-06T02:45:17;20.90;;;11.03;;
2299;SDS011;1158;48.750;9.078;2023-04-06T02:47:44;19.37;;;10.50;;
2299;SDS011;1158;48.750;9.078;2023-04-06T02:50:12;19.00;;;11.03;;
2299;SDS011;1158;48.750;9.078;2023-04-06T02:52:39;16.90;;;10.20;;
2299;SDS011;1158;48.750;9.078;2023-04-06T02:55:06;20.10;;;10.00;;
2299;SDS011;1158;48.750;9.078;2023-04-06T02:57:33;17.43;;;8.93;;
2299;SDS011;1158;48.750;9.078;2023-04-06T03:00:00;21.43;;;10.33;;
2299;SDS011;1158;48.750;9.078;2023-04-06T03:02:26;17.93;;;10.80;;
2299;SDS011;1158;48.750;9.078;2023-04-06T03:04:53;14.30;;;9.60;;
2299;SDS011;1158;48.750;9.078;2023-04-06T03:07:22;21.37;;;11.00;;
2299;SDS011;1158;48.750;9.078;2023-04-06T03:09:48;19.50;;;10.40;;
2299;SDS011;1158;48.750;9.078;2023-04-06T03:12:15;16.53;;;9.53;;
2299;SDS011;1158;48.750;9.078;2023-04-06T03:14:41;17.33;;;9.90;;
2299;SDS011;1158;48.750;9.078;2023-04-06T03:17:08;17.63;;;9.60;;
2299;SDS011;1158;48.750;9.078;2023-04-06T03:19:35;15.70;;;10.27;;
2299;SDS011;1158;48.750;9.078;2023-04-06T03:22:01;20.97;;;10.87;;
2299;SDS011;1158;48.750;9.078;2023-04-06T03:24:30;19.77;;;11.10;;
2299;SDS011;1158;48.750;9.078;2023-04-06T03:26:56;19.20;;;11.10;;
2299;SDS011;1158;48.750;9.078;2023-04-06T03:29:23;22.03;;;11.53;;
2299;SDS011;1158;48.750;9.078;2023-04-06T03:31:50;25.80;;;12.23;;
2299;SDS011;1158;48.750;9.078;2023-04-06T03:34:17;18.83;;;11.33;;
2299;SDS011;1158;48.750;9.078;2023-04-06T03:36:43;22.40;;;11.40;;
2299;SDS011;1158;48.750;9.078;2023-04-06T03:39:10;24.27;;;12.97;;
2299;SDS011;1158;48.750;9.078;2023-04-06T03:41:38;19.33;;;10.80;;
2299;SDS011;1158;48.750;9.078;2023-04-06T03:44:05;21.03;;;11.53;;
2299;SDS011;1158;48.750;9.078;2023-04-06T03:46:31;18.63;;;11.10;;
2299;SDS011;1158;48.750;9.078;2023-04-06T03:48:58;23.13;;;12.77;;
2299;SDS011;1158;48.750;9.078;2023-04-06T03:51:25;23.03;;;12.10;;
2299;SDS011;1158;48.750;9.078;2023-04-06T03:53:52;20.90;;;11.23;;
2299;SDS011;1158;48.750;9.078;2023-04-06T03:56:18;17.67;;;11.20;;
2299;SDS011;1158;48.750;9.078;2023-04-06T03:58:47;27.00;;;12.60;;
2299;SDS011;1158;48.750;9.078;2023-04-06T04:01:15;22.63;;;13.10;;
2299;SDS011;1158;48.750;9.078;2023-04-06T04:03:42;22.40;;;12.67;;
2299;SDS011;1158;48.750;9.078;2023-04-06T04:06:09;18.73;;;11.87;;
2299;SDS011;1158;48.750;9.078;2023-04-06T04:08:35;16.77;;;11.30;;
2299;SDS011;1158;48.750;9.078;2023-04-06T04:11:02;23.23;;;13.20;;
2299;SDS011;1158;48.750;9.078;2023-04-06T04:13:29;18.13;;;11.50;;
2299;SDS011;1158;48.750;9.078;2023-04-06T04:15:57;21.80;;;12.50;;
2299;SDS011;1158;48.750;9.078;2023-04-06T04:18:24;18.33;;;11.73;;
2299;SDS011;1158;48.750;9.078;2023-04-06T04:20:51;19.10;;;11.57;;
2299;SDS011;1158;48.750;9.078;2023-04-06T04:23:18;20.60;;;12.33;;
2299;SDS011;1158;48.750;9.078;2023-04-06T04:25:44;22.00;;;11.57;;
2299;SDS011;1158;48.750;9.078;2023-04-06T04:28:11;18.00;;;11.50;;
2299;SDS011;1158;48.750;9.078;2023-04-06T04:30:38;27.03;;;13.60;;
2299;SDS011;1158;48.750;9.078;2023-04-06T04:33:06;22.40;;;12.90;;
2299;SDS011;1158;48.750;9.078;2023-04-06T04:35:32;21.40;;;12.67;;
2299;SDS011;1158;48.750;9.078;2023-04-06T04:37:59;22.07;;;12.20;;
2299;SDS011;1158;48.750;9.078;2023-04-06T04:40:26;23.40;;;12.90;;
2299;SDS011;1158;48.750;9.078;2023-04-06T04:42:52;22.10;;;12.07;;
2299;SDS011;1158;48.750;9.078;2023-04-06T04:45:19;22.63;;;12.70;;
2299;SDS011;1158;48.750;9.078;2023-04-06T04:47:46;22.40;;;11.90;;
2299;SDS011;1158;48.750;9.078;2023-04-06T04:50:15;20.00;;;12.50;;
2299;SDS011;1158;48.750;9.078;2023-04-06T04:52:42;22.90;;;14.07;;
2299;SDS011;1158;48.750;9.078;2023-04-06T04:55:09;25.90;;;12.83;;
2299;SDS011;1158;48.750;9.078;2023-04-06T04:57:35;26.97;;;12.97;;
2299;SDS011;1158;48.750;9.078;2023-04-06T05:00:02;22.27;;;13.50;;
2299;SDS011;1158;48.750;9.078;2023-04-06T05:02:29;22.33;;;13.53;;
2299;SDS011;1158;48.750;9.078;2023-04-06T05:04:56;23.43;;;13.50;;
2299;SDS011;1158;48.750;9.078;2023-04-06T05:07:24;25.27;;;13.10;;
2299;SDS011;1158;48.750;9.078;2023-04-06T05:09:51;26.47;;;13.80;;
2299;SDS011;1158;48.750;9.078;2023-04-06T05:12:18;21.73;;;12.13;;
2299;SDS011;1158;48.750;9.078;2023-04-06T05:14:45;22.70;;;13.30;;
2299;SDS011;1158;48.750;9.078;2023-04-06T05:17:12;23.63;;;13.03;;
2299;SDS011;1158;48.750;9.078;2023-04-06T05:19:38;20.43;;;12.90;;
2299;SDS011;1158;48.750;9.078;2023-04-06T05:22:05;22.37;;;11.97;;
2299;SDS011;1158;48.750;9.078;2023-04-06T05:24:33;21.37;;;12.90;;
2299;SDS011;1158;48.750;9.078;2023-04-06T05:27:00;26.40;;;13.80;;
2299;SDS011;1158;48.750;9.078;2023-04-06T05:29:27;23.67;;;12.90;;
2299;SDS011;1158;48.750;9.078;2023-04-06T05:31:55;20.33;;;13.37;;
2299;SDS011;1158;48.750;9.078;2023-04-06T05:34:21;24.03;;;12.83;;
2299;SDS011;1158;48.750;9.078;2023-04-06T05:36:48;19.23;;;12.17;;
2299;SDS011;1158;48.750;9.078;2023-04-06T05:39:15;23.90;;;13.90;;
2299;SDS011;1158;48.750;9.078;2023-04-06T05:41:43;18.40;;;12.60;;
2299;SDS011;1158;48.750;9.078;2023-04-06T05:44:10;22.20;;;12.90;;
2299;SDS011;1158;48.750;9.078;2023-04-06T05:46:37;20.57;;;14.37;;
2299;SDS011;1158;48.750;9.078;2023-04-06T05:49:03;20.57;;;12.50;;
2299;SDS011;1158;48.750;9.078;2023-04-06T05:51:30;21.53;;;12.17;;
2299;SDS011;1158;48.750;9.078;2023-04-06T05:53:57;18.47;;;12.20;;
2299;SDS011;1158;48.750;9.078;2023-04-06T05:56:24;18.03;;;11.10;;
2299;SDS011;1158;48.750;9.078;2023-04-06T05:58:52;17.70;;;11.70;;
2299;SDS011;1158;48.750;9.078;2023-04-06T06:01:19;17.83;;;10.47;;
2299;SDS011;1158;48.750;9.078;2023-04-06T06:03:46;14.77;;;10.53;;
2299;SDS011;1158;48.750;9.078;2023-04-06T06:06:12;12.33;;;9.47;;
2299;SDS011;1158;48.750;9.078;2023-04-06T06:08:39;13.63;;;9.33;;
2299;SDS011;1158;48.750;9.078;2023-04-06T06:11:06;12.70;;;9.43;;
2299;SDS011;1158;48.750;9.078;2023-04-06T06:13:32;10.47;;;8.93;;
2299;SDS011;1158;48.750;9.078;2023-04-06T06:16:00;12.30;;;9.10;;
2299;SDS011;1158;48.750;9.078;2023-04-06T06:18:30;12.43;;;9.30;;
2299;SDS011;1158;48.750;9.078;2023-04-06T06:20:56;11.13;;;8.90;;
2299;SDS011;1158;48.750;9.078;2023-04-06T06:23:23;13.20;;;8.67;;
2299;SDS011;1158;48.750;9.078;2023-04-06T06:25:50;12.03;;;9.10;;
2299;SDS011;1158;48.750;9.078;2023-04-06T06:28:16;10.47;;;8.67;;
2299;SDS011;1158;48.750;9.078;2023-04-06T06:30:43;10.50;;;7.93;;
2299;SDS011;1158;48.750;9.078;2023-04-06T06:33:11;12.80;;;9.00;;
2299;SDS011;1158;48.750;9.078;2023-04-06T06:35:38;10.43;;;7.83;;
2299;SDS011;1158;48.750;9.078;2023-04-06T06:38:05;12.50;;;7.90;;
2299;SDS011;1158;48.750;9.078;2023-04-06T06:40:31;11.50;;;9.03;;
2299;SDS011;1158;48.750;9.078;2023-04-06T06:42:59;11.03;;;8.27;;
2299;SDS011;1158;48.750;9.078;2023-04-06T06:45:26;13.93;;;8.40;;
2299;SDS011;1158;48.750;9.078;2023-04-06T06:47:54;12.10;;;9.10;;
2299;SDS011;1158;48.750;9.078;2023-04-06T06:50:22;12.10;;;9.63;;
2299;SDS011;1158;48.750;9.078;2023-04-06T06:52:49;9.70;;;8.70;;
2299;SDS011;1158;48.750;9.078;2023-04-06T06:55:15;10.50;;;8.40;;
2299;SDS011;1158;48.750;9.078;2023-04-06T06:57:44;9.80;;;7.67;;
2299;SDS011;1158;48.750;9.078;2023-04-06T07:00:11;9.10;;;8.03;;
2299;SDS011;1158;48.750;9.078;2023-04-06T07:02:39;11.17;;;8.50;;
2299;SDS011;1158;48.750;9.078;2023-04-06T07:05:06;10.40;;;8.07;;
2299;SDS011;1158;48.750;9.078;2023-04-06T07:07:35;9.73;;;8.37;;
2299;SDS011;1158;48.750;9.078;2023-04-06T07:10:01;10.60;;;8.77;;
2299;SDS011;1158;48.750;9.078;2023-04-06T07:12:28;9.47;;;8.43;;
2299;SDS011;1158;48.750;9.078;2023-04-06T07:14:55;13.10;;;9.70;;
2299;SDS011;1158;48.750;9.078;2023-04-06T07:17:21;12.30;;;9.70;;
2299;SDS011;1158;48.750;9.078;2023-04-06T07:19:48;12.27;;;9.70;;
2299;SDS011;1158;48.750;9.078;2023-04-06T07:22:15;10.17;;;8.73;;
2299;SDS011;1158;48.750;9.078;2023-04-06T07:24:43;12.37;;;9.30;;
2299;SDS011;1158;48.750;9.078;2023-04-06T07:27:10;11.40;;;8.83;;
2299;SDS011;1158;48.750;9.078;2023-04-06T07:29:36;11.13;;;8.37;;
2299;SDS011;1158;48.750;9.078;2023-04-06T07:32:03;11.00;;;9.57;;
2299;SDS011;1158;48.750;9.078;2023-04-06T07:34:30;10.97;;;8.70;;
2299;SDS011;1158;48.750;9.078;2023-04-06T07:36:57;10.83;;;9.60;;
2299;SDS011;1158;48.750;9.078;2023-04-06T07:39:25;12.77;;;10.40;;
2299;SDS011;1158;48.750;9.078;2023-04-06T07:41:54;11.30;;;9.60;;
2299;SDS011;1158;48.750;9.078;2023-04-06T07:44:21;12.70;;;9.77;;
2299;SDS011;1158;48.750;9.078;2023-04-06T07:46:47;15.90;;;9.80;;
2299;SDS011;1158;48.750;9.078;2023-04-06T07:49:14;10.70;;;9.50;;
2299;SDS011;1158;48.750;9.078;2023-04-06T07:51:41;14.67;;;10.53;;
2299;SDS011;1158;48.750;9.078;2023-04-06T07:54:08;12.00;;;9.13;;
2299;SDS011;1158;48.750;9.078;2023-04-06T07:56:34;11.17;;;9.77;;
2299;SDS011;1158;48.750;9.078;2023-04-06T07:59:02;11.77;;;9.47;;
2299;SDS011;1158;48.750;9.078;2023-04-06T08:01:29;11.60;;;9.23;;
2299;SDS011;1158;48.750;9.078;2023-04-06T08:03:56;12.57;;;10.00;;
2299;SDS011;1158;48.750;9.078;2023-04-06T08:06:23;10.50;;;9.40;;
2299;SDS011;1158;48.750;9.078;2023-04-06T08:08:52;13.00;;;10.13;;
2299;SDS011;1158;48.750;9.078;2023-04-06T08:11:18;10.60;;;8.80;;
2299;SDS011;1158;48.750;9.078;2023-04-06T08:13:46;13.37;;;9.40;;
2299;SDS011;1158;48.750;9.078;2023-04-06T08:16:14;11.20;;;8.77;;
2299;SDS011;1158;48.750;9.078;2023-04-06T08:18:41;11.40;;;9.80;;
2299;SDS011;1158;48.750;9.078;2023-04-06T08:21:08;11.47;;;9.93;;
2299;SDS011;1158;48.750;9.078;2023-04-06T08:23:35;11.87;;;10.10;;
2299;SDS011;1158;48.750;9.078;2023-04-06T08:26:01;11.60;;;9.37;;
2299;SDS011;1158;48.750;9.078;2023-04-06T08:28:28;12.43;;;10.03;;
2299;SDS011;1158;48.750;9.078;2023-04-06T08:30:55;15.80;;;9.03;;
2299;SDS011;1158;48.750;9.078;2023-04-06T08:33:23;10.90;;;9.07;;
2299;SDS011;1158;48.750;9.078;2023-04-06T08:35:49;11.77;;;10.13;;
2299;SDS011;1158;48.750;9.078;2023-04-06T08:38:16;11.90;;;9.33;;
2299;SDS011;1158;48.750;9.078;2023-04-06T08:40:43;13.20;;;9.70;;
2299;SDS011;1158;48.750;9.078;2023-04-06T08:43:13;11.83;;;9.60;;
2299;SDS011;1158;48.750;9.078;2023-04-06T08:45:40;12.17;;;10.13;;
2299;SDS011;1158;48.750;9.078;2023-04-06T08:48:08;14.43;;;10.13;;
2299;SDS011;1158;48.750;9.078;2023-04-06T08:50:39;11.30;;;8.80;;
2299;SDS011;1158;48.750;9.078;2023-04-06T08:53:06;12.50;;;8.73;;
2299;SDS011;1158;48.750;9.078;2023-04-06T08:55:33;15.60;;;9.80;;
2299;SDS011;1158;48.750;9.078;2023-04-06T08:58:01;11.37;;;9.03;;
2299;SDS011;1158;48.750;9.078;2023-04-06T09:00:28;14.60;;;10.07;;
2299;SDS011;1158;48.750;9.078;2023-04-06T09:02:55;12.37;;;10.07;;
2299;SDS011;1158;48.750;9.078;2023-04-06T09:05:23;13.57;;;10.60;;
2299;SDS011;1158;48.750;9.078;2023-04-06T09:07:53;13.50;;;11.27;;
2299;SDS011;1158;48.750;9.078;2023-04-06T09:10:20;12.67;;;10.80;;
2299;SDS011;1158;48.750;9.078;2023-04-06T09:12:48;15.80;;;11.10;;
2299;SDS011;1158;48.750;9.078;2023-04-06T09:15:18;13.50;;;10.67;;
2299;SDS011;1158;48.750;9.078;2023-04-06T09:17:46;13.43;;;11.23;;
2299;SDS011;1158;48.750;9.078;2023-04-06T09:20:13;14.70;;;11.67;;
2299;SDS011;1158;48.750;9.078;2023-04-06T09:22:42;12.80;;;10.77;;
2299;SDS011;1158;48.750;9.078;2023-04-06T09:25:17;15.63;;;11.00;;
2299;SDS011;1158;48.750;9.078;2023-04-06T09:27:45;14.80;;;10.90;;
2299;SDS011;1158;48.750;9.078;2023-04-06T09:30:12;16.77;;;11.00;;
2299;SDS011;1158;48.750;9.078;2023-04-06T09:32:45;13.37;;;9.93;;
2299;SDS011;1158;48.750;9.078;2023-04-06T09:35:13;15.90;;;10.50;;
2299;SDS011;1158;48.750;9.078;2023-04-06T09:37:40;11.60;;;9.87;;
2299;SDS011;1158;48.750;9.078;2023-04-06T09:40:08;12.80;;;10.60;;
2299;SDS011;1158;48.750;9.078;2023-04-06T09:42:36;17.10;;;12.67;;
2299;SDS011;1158;48.750;9.078;2023-04-06T09:45:03;16.27;;;11.67;;
2299;SDS011;1158;48.750;9.078;2023-04-06T09:47:30;12.13;;;10.20;;
2299;SDS011;1158;48.750;9.078;2023-04-06T09:49:59;12.60;;;9.40;;
2299;SDS011;1158;48.750;9.078;2023-04-06T09:52:27;12.90;;;10.37;;
2299;SDS011;1158;48.750;9.078;2023-04-06T09:54:59;14.73;;;10.70;;
2299;SDS011;1158;48.750;9.078;2023-04-06T09:57:30;11.30;;;8.90;;
2299;SDS011;1158;48.750;9.078;2023-04-06T10:00:03;11.13;;;9.90;;
2299;SDS011;1158;48.750;9.078;2023-04-06T10:02:35;12.50;;;9.07;;
2299;SDS011;1158;48.750;9.078;2023-04-06T10:05:13;14.93;;;9.70;;
2299;SDS011;1158;48.750;9.078;2023-04-06T10:07:45;10.60;;;8.30;;
2299;SDS011;1158;48.750;9.078;2023-04-06T10:10:15;11.67;;;8.67;;
2299;SDS011;1158;48.750;9.078;2023-04-06T10:12:44;13.03;;;9.97;;
2299;SDS011;1158;48.750;9.078;2023-04-06T10:15:12;12.70;;;9.90;;
2299;SDS011;1158;48.750;9.078;2023-04-06T10:17:38;13.57;;;10.17;;
2299;SDS011;1158;48.750;9.078;2023-04-06T10:20:07;11.90;;;9.63;;
2299;SDS011;1158;48.750;9.078;2023-04-06T10:22:41;12.83;;;9.30;;
2299;SDS011;1158;48.750;9.078;2023-04-06T10:25:15;10.43;;;9.30;;
2299;SDS011;1158;48.750;9.078;2023-04-06T10:27:43;12.00;;;9.90;;
2299;SDS011;1158;48.750;9.078;2023-04-06T10:30:10;10.20;;;8.47;;
2299;SDS011;1158;48.750;9.078;2023-04-06T10:32:41;15.17;;;9.50;;
2299;SDS011;1158;48.750;9.078;2023-04-06T10:35:08;12.37;;;10.07;;
2299;SDS011;1158;48.750;9.078;2023-04-06T10:37:46;13.27;;;8.90;;
2299;SDS011;1158;48.750;9.078;2023-04-06T10:40:17;11.10;;;9.63;;
2299;SDS011;1158;48.750;9.078;2023-04-06T10:42:46;10.47;;;8.47;;
2299;SDS011;1158;48.750;9.078;2023-04-06T10:45:20;13.73;;;8.90;;
2299;SDS011;1158;48.750;9.078;2023-04-06T10:47:47;11.73;;;9.80;;
2299;SDS011;1158;48.750;9.078;2023-04-06T10:50:14;11.40;;;9.40;;
2299;SDS011;1158;48.750;9.078;2023-04-06T10:52:43;13.13;;;8.77;;
2299;SDS011;1158;48.750;9.078;2023-04-06T10:55:10;10.20;;;8.70;;
2299;SDS011;1158;48.750;9.078;2023-04-06T10:57:39;11.20;;;8.10;;
2299;SDS011;1158;48.750;9.078;2023-04-06T11:00:08;12.73;;;9.30;;
2299;SDS011;1158;48.750;9.078;2023-04-06T11:02:35;10.53;;;8.60;;
2299;SDS011;1158;48.750;9.078;2023-04-06T11:05:02;12.10;;;9.37;;
2299;SDS011;1158;48.750;9.078;2023-04-06T11:07:29;13.70;;;10.23;;
2299;SDS011;1158;48.750;9.078;2023-04-06T11:09:56;11.47;;;8.80;;
2299;SDS011;1158;48.750;9.078;2023-04-06T11:12:23;12.50;;;9.23;;
2299;SDS011;1158;48.750;9.078;2023-04-06T11:14:54;11.27;;;9.00;;
2299;SDS011;1158;48.750;9.078;2023-04-06T11:17:27;8.93;;;6.80;;
2299;SDS011;1158;48.750;9.078;2023-04-06T11:19:54;10.13;;;7.40;;
2299;SDS011;1158;48.750;9.078;2023-04-06T11:22:22;15.03;;;9.87;;
2299;SDS011;1158;48.750;9.078;2023-04-06T11:24:48;13.37;;;8.93;;
2299;SDS011;1158;48.750;9.078;2023-04-06T11:27:15;13.90;;;8.53;;
2299;SDS011;1158;48.750;9.078;2023-04-06T11:29:43;11.70;;;9.30;;
2299;SDS011;1158;48.750;9.078;2023-04-06T11:32:11;12.63;;;9.07;;
2299;SDS011;1158;48.750;9.078;2023-04-06T11:34:47;12.33;;;9.10;;
2299;SDS011;1158;48.750;9.078;2023-04-06T11:37:14;12.10;;;8.50;;
2299;SDS011;1158;48.750;9.078;2023-04-06T11:39:42;10.77;;;9.13;;
2299;SDS011;1158;48.750;9.078;2023-04-06T11:42:12;13.73;;;10.37;;
2299;SDS011;1158;48.750;9.078;2023-04-06T11:44:46;13.13;;;8.60;;
2299;SDS011;1158;48.750;9.078;2023-04-06T11:47:16;11.40;;;8.33;;
2299;SDS011;1158;48.750;9.078;2023-04-06T11:49:43;10.50;;;7.80;;
2299;SDS011;1158;48.750;9.078;2023-04-06T11:52:15;13.93;;;8.47;;
2299;SDS011;1158;48.750;9.078;2023-04-06T11:54:43;10.50;;;8.10;;
2299;SDS011;1158;48.750;9.078;2023-04-06T11:57:10;11.20;;;8.10;;
2299;SDS011;1158;48.750;9.078;2023-04-06T11:59:37;9.30;;;7.70;;
2299;SDS011;1158;48.750;9.078;2023-04-06T12:02:04;9.43;;;7.43;;
2299;SDS011;1158;48.750;9.078;2023-04-06T12:04:31;11.70;;;8.17;;
2299;SDS011;1158;48.750;9.078;2023-04-06T12:06:58;17.90;;;8.90;;
2299;SDS011;1158;48.750;9.078;2023-04-06T12:09:26;10.20;;;8.37;;
2299;SDS011;1158;48.750;9.078;2023-04-06T12:11:53;10.67;;;8.50;;
2299;SDS011;1158;48.750;9.078;2023-04-06T12:14:20;12.57;;;8.97;;
2299;SDS011;1158;48.750;9.078;2023-04-06T12:16:47;8.43;;;7.53;;
2299;SDS011;1158;48.750;9.078;2023-04-06T12:19:14;14.37;;;10.03;;
2299;SDS011;1158;48.750;9.078;2023-04-06T12:21:41;11.90;;;8.10;;
2299;SDS011;1158;48.750;9.078;2023-04-06T12:24:07;11.07;;;8.57;;
2299;SDS011;1158;48.750;9.078;2023-04-06T12:26:35;9.80;;;7.80;;
2299;SDS011;1158;48.750;9.078;2023-04-06T12:29:03;11.20;;;8.10;;
2299;SDS011;1158;48.750;9.078;2023-04-06T12:31:32;12.23;;;8.53;;
2299;SDS011;1158;48.750;9.078;2023-04-06T12:34:00;11.40;;;8.70;;
2299;SDS011;1158;48.750;9.078;2023-04-06T12:36:28;13.17;;;9.50;;
2299;SDS011;1158;48.750;9.078;2023-04-06T12:38:54;9.57;;;8.30;;
2299;SDS011;1158;48.750;9.078;2023-04-06T12:41:21;10.23;;;7.87;;
2299;SDS011;1158;48.750;9.078;2023-04-06T12:43:49;14.43;;;9.77;;
2299;SDS011;1158;48.750;9.078;2023-04-06T12:46:16;11.77;;;9.37;;
2299;SDS011;1158;48.750;9.078;2023-04-06T12:48:43;11.50;;;8.60;;
2299;SDS011;1158;48.750;9.078;2023-04-06T12:51:10;11.07;;;8.83;;
2299;SDS011;1158;48.750;9.078;2023-04-06T12:53:36;12.90;;;9.33;;
2299;SDS011;1158;48.750;9.078;2023-04-06T12:56:10;11.73;;;9.47;;
2299;SDS011;1158;48.750;9.078;2023-04-06T12:58:38;20.80;;;9.77;;
2299;SDS011;1158;48.750;9.078;2023-04-06T13:01:07;12.40;;;9.30;;
2299;SDS011;1158;48.750;9.078;2023-04-06T13:03:35;12.03;;;9.43;;
2299;SDS011;1158;48.750;9.078;2023-04-06T13:06:02;10.03;;;7.67;;
2299;SDS011;1158;48.750;9.078;2023-04-06T13:08:29;12.10;;;8.87;;
2299;SDS011;1158;48.750;9.078;2023-04-06T13:10:56;10.57;;;7.77;;
2299;SDS011;1158;48.750;9.078;2023-04-06T13:13:23;9.20;;;7.83;;
2299;SDS011;1158;48.750;9.078;2023-04-06T13:15:50;13.93;;;8.87;;
2299;SDS011;1158;48.750;9.078;2023-04-06T13:18:18;10.37;;;8.23;;
2299;SDS011;1158;48.750;9.078;2023-04-06T13:20:46;9.10;;;7.60;;
2299;SDS011;1158;48.750;9.078;2023-04-06T13:23:13;9.80;;;7.53;;
2299;SDS011;1158;48.750;9.078;2023-04-06T13:25:40;9.67;;;7.63;;
2299;SDS011;1158;48.750;9.078;2023-04-06T13:28:07;12.67;;;9.97;;
2299;SDS011;1158;48.750;9.078;2023-04-06T13:30:34;8.13;;;7.03;;
2299;SDS011;1158;48.750;9.078;2023-04-06T13:33:02;13.83;;;11.97;;
2299;SDS011;1158;48.750;9.078;2023-04-06T13:35:30;10.40;;;7.93;;
2299;SDS011;1158;48.750;9.078;2023-04-06T13:37:57;10.57;;;9.43;;
2299;SDS011;1158;48.750;9.078;2023-04-06T13:40:24;11.10;;;8.77;;
2299;SDS011;1158;48.750;9.078;2023-04-06T13:42:51;12.63;;;8.27;;
2299;SDS011;1158;48.750;9.078;2023-04-06T13:45:18;10.43;;;8.53;;
2299;SDS011;1158;48.750;9.078;2023-04-06T13:47:44;11.37;;;6.50;;
2299;SDS011;1158;48.750;9.078;2023-04-06T13:50:11;10.90;;;7.60;;
2299;SDS011;1158;48.750;9.078;2023-04-06T13:52:39;17.70;;;8.10;;
2299;SDS011;1158;48.750;9.078;2023-04-06T13:55:07;11.27;;;9.37;;
2299;SDS011;1158;48.750;9.078;2023-04-06T13:57:34;11.60;;;7.07;;
2299;SDS011;1158;48.750;9.078;2023-04-06T14:00:01;11.13;;;8.23;;
2299;SDS011;1158;48.750;9.078;2023-04-06T14:02:28;9.97;;;7.37;;
2299;SDS011;1158;48.750;9.078;2023-04-06T14:04:55;10.37;;;9.23;;
2299;SDS011;1158;48.750;9.078;2023-04-06T14:07:22;10.53;;;7.57;;
2299;SDS011;1158;48.750;9.078;2023-04-06T14:09:51;11.40;;;8.40;;
2299;SDS011;1158;48.750;9.078;2023-04-06T14:12:17;10.03;;;7.97;;
2299;SDS011;1158;48.750;9.078;2023-04-06T14:14:44;9.83;;;7.57;;
2299;SDS011;1158;48.750;9.078;2023-04-06T14:17:11;11.37;;;8.03;;
2299;SDS011;1158;48.750;9.078;2023-04-06T14:19:38;12.27;;;9.33;;
2299;SDS011;1158;48.750;9.078;2023-04-06T14:22:05;8.90;;;8.00;;
2299;SDS011;1158;48.750;9.078;2023-04-06T14:24:31;9.80;;;8.23;;
2299;SDS011;1158;48.750;9.078;2023-04-06T14:27:00;8.00;;;6.00;;
2299;SDS011;1158;48.750;9.078;2023-04-06T14:29:27;8.37;;;6.33;;
2299;SDS011;1158;48.750;9.078;2023-04-06T14:31:53;7.83;;;6.33;;
2299;SDS011;1158;48.750;9.078;2023-04-06T14:34:24;7.67;;;6.40;;
2299;SDS011;1158;48.750;9.078;2023-04-06T14:36:51;7.90;;;5.50;;
2299;SDS011;1158;48.750;9.078;2023-04-06T14:39:18;7.07;;;5.07;;
2299;SDS011;1158;48.750;9.078;2023-04-06T14:41:44;7.63;;;6.57;;
2299;SDS011;1158;48.750;9.078;2023-04-06T14:44:13;8.27;;;5.93;;
2299;SDS011;1158;48.750;9.078;2023-04-06T14:46:41;9.47;;;6.43;;
2299;SDS011;1158;48.750;9.078;2023-04-06T14:49:08;7.67;;;6.60;;
2299;SDS011;1158;48.750;9.078;2023-04-06T14:51:35;7.20;;;6.00;;
2299;SDS011;1158;48.750;9.078;2023-04-06T14:54:02;6.90;;;6.20;;
2299;SDS011;1158;48.750;9.078;2023-04-06T14:56:29;7.60;;;6.53;;
2299;SDS011;1158;48.750;9.078;2023-04-06T14:58:57;7.33;;;6.47;;
2299;SDS011;1158;48.750;9.078;2023-04-06T15:01:34;8.83;;;6.60;;